Time;durP1;ratioP1;P1;durP2;ratioP2;P2;SDS_P1;SDS_P2;PMS_P1;PMS_P2;Temp;Humidity;BMP_temperature;BMP_pressure;BME280_temperature;BME280_humidity;BME280_pressure;Samples;Min_cycle;Max_cycle;Signal;HPM_P1;HPM_P2
2022/12/04 00:00:29;;;;;;;;;;;;;;;3.06;100.00;101168.47;5589625;31;34413;-70
2022/12/04 00:03:36;;;;;;;;;;;;;;;3.15;100.00;101172.25;5576557;31;34320;-70
2022/12/04 00:06:44;;;;;;;;;;;;;;;3.13;100.00;101168.91;5589803;31;34955;-70
2022/12/04 00:09:51;;;;;;;;;;;;;;;3.31;100.00;101164.22;5576306;31;34283;-71
2022/12/04 00:12:57;;;;;;;;;;;;;;;3.24;100.00;101161.19;5589824;31;34454;-71
2022/12/04 00:16:10;;;;;;;;;;;;;;;3.23;100.00;101162.13;5589494;31;34380;-71
2022/12/04 00:19:18;;;;;;;;;;;;;;;3.32;100.00;101165.91;5589636;31;34265;-71
2022/12/04 00:22:28;;;;;;;;;;;;;;;3.32;100.00;101163.28;5589614;31;34852;-71
2022/12/04 00:25:34;;;;;;;;;;;;;;;3.42;100.00;101159.09;5589676;31;34199;-70
2022/12/04 00:28:48;;;;;;;;;;;;;;;3.27;100.00;101166.22;5589560;31;34276;-71
2022/12/04 00:31:56;;;;;;;;;;;;;;;3.18;100.00;101171.22;5575844;31;34133;-71
2022/12/04 00:35:05;;;;;;;;;;;;;;;3.06;100.00;101170.25;5589522;31;34236;-71
2022/12/04 00:38:13;;;;;;;;;;;;;;;2.97;100.00;101183.97;5589282;31;34980;-71
2022/12/04 00:41:23;;;;;;;;;;;;;;;2.92;100.00;101179.00;5589316;31;34209;-71
2022/12/04 00:44:30;;;;;;;;;;;;;;;2.97;100.00;101179.56;5589332;31;34197;-71
2022/12/04 00:47:38;;;;;;;;;;;;;;;3.00;100.00;101178.53;5589120;31;35063;-70
2022/12/04 00:50:44;;;;;;;;;;;;;;;3.00;100.00;101163.63;5589116;31;34402;-70
2022/12/04 00:53:52;;;;;;;;;;;;;;;2.85;100.00;101164.66;5575704;31;34676;-71
2022/12/04 00:56:56;;;;;;;;;;;;;;;2.84;100.00;101165.56;5588885;31;34393;-71
2022/12/04 01:00:05;;;;;;;;;;;;;;;2.77;100.00;101164.28;5575805;31;34851;-70
2022/12/04 01:03:12;;;;;;;;;;;;;;;2.80;100.00;101165.87;5575436;31;34383;-71
2022/12/04 01:06:22;;;;;;;;;;;;;;;2.76;100.00;101162.59;5588809;31;34219;-71
2022/12/04 01:09:28;;;;;;;;;;;;;;;2.87;100.00;101169.75;5575169;31;34922;-71
2022/12/04 01:12:36;;;;;;;;;;;;;;;2.89;100.00;101171.38;5591040;31;34819;-71
2022/12/04 01:15:44;;;;;;;;;;;;;;;2.91;100.00;101171.25;5591566;31;34749;-70
2022/12/04 01:18:58;;;;;;;;;;;;;;;2.93;100.00;101170.22;5578344;31;35066;-71
2022/12/04 01:22:05;;;;;;;;;;;;;;;3.05;100.00;101168.56;5591236;31;34925;-71
2022/12/04 01:25:14;;;;;;;;;;;;;;;3.05;100.00;101174.66;5591372;31;34303;-71
2022/12/04 01:28:20;;;;;;;;;;;;;;;3.14;100.00;101170.59;5591290;31;34266;-71
2022/12/04 01:31:29;;;;;;;;;;;;;;;3.26;100.00;101164.53;5577029;31;32785;-70
2022/12/04 01:34:36;;;;;;;;;;;;;;;3.35;100.00;101170.94;5591178;31;34272;-70
2022/12/04 01:37:42;;;;;;;;;;;;;;;3.45;100.00;101169.37;5576785;31;32713;-71
2022/12/04 01:40:50;;;;;;;;;;;;;;;3.49;100.00;101171.69;5591222;31;34517;-71
2022/12/04 01:44:10;;;;;;;;;;;;;;;3.55;100.00;101159.09;5591102;31;34613;-70
2022/12/04 01:47:14;;;;;;;;;;;;;;;3.54;100.00;101165.28;5576895;31;34305;-70
2022/12/04 01:50:24;;;;;;;;;;;;;;;3.60;100.00;101163.09;5577755;31;34470;-71
2022/12/04 01:53:31;;;;;;;;;;;;;;;3.62;100.00;101166.47;5591013;31;34794;-70
2022/12/04 01:56:42;;;;;;;;;;;;;;;3.68;100.00;101173.91;5590840;31;34886;-69
2022/12/04 01:59:51;;;;;;;;;;;;;;;3.69;100.00;101178.22;5590968;31;34894;-70
2022/12/04 02:03:01;;;;;;;;;;;;;;;3.69;100.00;101170.34;5590984;31;34772;-71
2022/12/04 02:06:08;;;;;;;;;;;;;;;3.67;100.00;101169.63;5590953;31;34582;-70
2022/12/04 02:09:15;;;;;;;;;;;;;;;3.61;100.00;101161.31;5590766;31;34371;-70
2022/12/04 02:12:38;;;;;;;;;;;;;;;3.50;100.00;101162.03;5590843;31;34594;-70
2022/12/04 02:15:59;;;;;;;;;;;;;;;3.38;100.00;101153.25;5590862;31;34591;-70
2022/12/04 02:19:25;;;;;;;;;;;;;;;3.23;100.00;101151.63;5590884;31;34910;-70
2022/12/04 02:22:32;;;;;;;;;;;;;;;3.13;100.00;101154.97;5589899;31;35139;-70
2022/12/04 02:25:48;;;;;;;;;;;;;;;3.05;100.00;101152.81;5590772;31;34242;-71
2022/12/04 02:28:56;;;;;;;;;;;;;;;2.94;100.00;101153.56;5590770;31;34204;-71
2022/12/04 02:32:04;;;;;;;;;;;;;;;2.93;100.00;101159.72;5590655;31;34244;-70
2022/12/04 02:35:19;;;;;;;;;;;;;;;2.80;100.00;101155.41;5590664;31;34983;-71
2022/12/04 02:38:28;;;;;;;;;;;;;;;2.73;100.00;101157.56;5590574;31;35401;-71
2022/12/04 02:41:39;;;;;;;;;;;;;;;2.67;100.00;101154.47;5577347;31;34460;-71
2022/12/04 02:44:46;;;;;;;;;;;;;;;2.56;100.00;101144.72;5590570;31;34874;-71
2022/12/04 02:47:54;;;;;;;;;;;;;;;2.58;100.00;101158.53;5590583;31;34878;-71
2022/12/04 02:51:06;;;;;;;;;;;;;;;2.56;100.00;101158.66;5590807;31;34813;-71
2022/12/04 02:54:17;;;;;;;;;;;;;;;2.48;100.00;101154.81;5590399;31;35072;-70
2022/12/04 02:57:30;;;;;;;;;;;;;;;2.52;100.00;101165.00;5577240;31;35046;-70
2022/12/04 03:00:36;;;;;;;;;;;;;;;2.46;100.00;101156.72;5577027;31;34295;-71
2022/12/04 03:03:44;;;;;;;;;;;;;;;2.46;100.00;101156.72;5590298;31;34182;-71
2022/12/04 03:06:54;;;;;;;;;;;;;;;2.54;100.00;101155.28;5590143;31;34874;-70
2022/12/04 03:10:04;;;;;;;;;;;;;;;2.57;100.00;101149.00;5590271;31;35083;-70
2022/12/04 03:13:23;;;;;;;;;;;;;;;2.52;100.00;101151.06;5590277;31;34872;-70
2022/12/04 03:16:34;;;;;;;;;;;;;;;2.41;100.00;101145.69;5590222;31;34173;-71
2022/12/04 03:19:48;;;;;;;;;;;;;;;2.29;100.00;101149.91;5590260;31;34250;-70
2022/12/04 03:22:59;;;;;;;;;;;;;;;2.19;100.00;101143.56;5577014;31;34837;-70
2022/12/04 03:26:21;;;;;;;;;;;;;;;2.06;100.00;101145.25;5590093;31;34399;-71
2022/12/04 03:29:32;;;;;;;;;;;;;;;1.97;100.00;101145.84;5590172;31;34936;-71
2022/12/04 03:32:48;;;;;;;;;;;;;;;1.90;100.00;101147.97;5590560;31;34676;-70
2022/12/04 03:36:00;;;;;;;;;;;;;;;1.85;100.00;101143.97;5590217;31;34756;-71
2022/12/04 03:39:11;;;;;;;;;;;;;;;1.88;100.00;101149.88;5589994;31;34969;-71
2022/12/04 03:42:25;;;;;;;;;;;;;;;1.87;100.00;101144.72;5576566;31;34323;-70
2022/12/04 03:45:38;;;;;;;;;;;;;;;1.83;100.00;101133.59;5576461;31;34252;-70
2022/12/04 03:48:50;;;;;;;;;;;;;;;1.81;100.00;101140.69;5590100;31;34813;-70
2022/12/04 03:51:59;;;;;;;;;;;;;;;1.80;100.00;101146.00;5590038;31;34402;-70
2022/12/04 03:55:13;;;;;;;;;;;;;;;1.77;100.00;101143.59;5590040;31;34188;-70
2022/12/04 03:58:23;;;;;;;;;;;;;;;1.79;100.00;101147.81;5589750;31;35083;-71
2022/12/04 04:01:34;;;;;;;;;;;;;;;1.87;100.00;101156.03;5590033;31;34348;-71
2022/12/04 04:04:41;;;;;;;;;;;;;;;1.90;100.00;101150.59;5589895;31;34654;-70
2022/12/04 04:07:55;;;;;;;;;;;;;;;1.97;100.00;101148.44;5517603;31;1855642;-71
2022/12/04 04:11:17;;;;;;;;;;;;;;;1.87;100.00;101150.78;5576666;31;34894;-70
2022/12/04 04:24:58;;;;;;;;;;;;;;;2.12;100.00;101161.44;5589809;31;34168;-71
2022/12/04 04:28:05;;;;;;;;;;;;;;;2.18;100.00;101158.41;5576390;31;34414;-71
2022/12/04 04:31:16;;;;;;;;;;;;;;;2.28;100.00;101152.59;5589452;31;35097;-71
2022/12/04 04:34:27;;;;;;;;;;;;;;;2.37;100.00;101152.06;5589597;31;34227;-71
2022/12/04 04:37:47;;;;;;;;;;;;;;;2.26;100.00;101162.34;5589430;31;34387;-70
2022/12/04 04:41:05;;;;;;;;;;;;;;;2.25;100.00;101160.66;5576015;31;34286;-71
2022/12/04 04:44:27;;;;;;;;;;;;;;;2.26;100.00;101163.19;5589618;31;34188;-71
2022/12/04 04:47:35;;;;;;;;;;;;;;;2.25;100.00;101156.28;5589017;31;34370;-71
2022/12/04 04:50:44;;;;;;;;;;;;;;;2.28;100.00;101158.69;5589260;31;34298;-71
2022/12/04 04:53:52;;;;;;;;;;;;;;;2.31;100.00;101149.81;5562210;31;35122;-71
2022/12/04 04:57:02;;;;;;;;;;;;;;;2.38;100.00;101157.19;5575874;31;34291;-72
2022/12/04 05:00:15;;;;;;;;;;;;;;;2.44;100.00;101150.72;5575053;31;34379;-71
2022/12/04 05:03:21;;;;;;;;;;;;;;;2.53;100.00;101153.59;5562456;31;33919;-71
2022/12/04 05:06:29;;;;;;;;;;;;;;;2.62;100.00;101160.00;5589193;31;34643;-71
2022/12/04 05:09:36;;;;;;;;;;;;;;;2.61;100.00;101159.16;5575502;31;34606;-71
2022/12/04 05:12:45;;;;;;;;;;;;;;;2.62;100.00;101160.84;5588799;31;34382;-71
2022/12/04 05:15:56;;;;;;;;;;;;;;;2.67;100.00;101160.56;5575461;31;34885;-70
2022/12/04 05:22:32;;;;;;;;;;;;;;;2.72;100.00;101155.87;5588655;31;34255;-71
2022/12/04 05:25:38;;;;;;;;;;;;;;;2.72;100.00;101147.16;5588670;31;34905;-70
2022/12/04 05:28:45;;;;;;;;;;;;;;;2.62;100.00;101149.53;5574719;31;33846;-71
2022/12/04 05:31:52;;;;;;;;;;;;;;;2.58;100.00;101145.44;5575193;31;34083;-71
2022/12/04 05:34:59;;;;;;;;;;;;;;;2.56;100.00;101158.66;5574272;31;33182;-71
2022/12/04 05:38:18;;;;;;;;;;;;;;;2.53;100.00;101158.84;5576084;31;34213;-71
2022/12/04 05:41:27;;;;;;;;;;;;;;;2.53;100.00;101158.84;5588234;31;34969;-70
2022/12/04 05:44:36;;;;;;;;;;;;;;;2.53;100.00;101150.97;5561770;31;33561;-72
2022/12/04 05:47:44;;;;;;;;;;;;;;;2.53;100.00;101145.72;5588111;31;34736;-72
2022/12/04 05:50:50;;;;;;;;;;;;;;;2.49;100.00;101146.03;5573931;31;34409;-71
2022/12/04 05:53:57;;;;;;;;;;;;;;;2.40;100.00;101141.38;5588438;31;34570;-71
2022/12/04 05:57:05;;;;;;;;;;;;;;;2.30;100.00;101145.50;5589207;31;34087;-71
2022/12/04 06:00:12;;;;;;;;;;;;;;;2.21;100.00;101148.72;5577535;31;34796;-71
2022/12/04 06:03:18;;;;;;;;;;;;;;;2.19;100.00;101160.09;5577580;31;34827;-70
2022/12/04 06:06:26;;;;;;;;;;;;;;;2.17;100.00;101159.37;5590722;31;34873;-70
2022/12/04 06:09:34;;;;;;;;;;;;;;;2.08;100.00;101156.50;5590739;31;34679;-71
2022/12/04 06:12:42;;;;;;;;;;;;;;;1.92;100.00;101148.75;5576934;31;34605;-70
2022/12/04 06:15:52;;;;;;;;;;;;;;;1.90;100.00;101158.44;5590794;31;34285;-71
2022/12/04 06:19:01;;;;;;;;;;;;;;;1.85;100.00;101157.88;5577364;31;34913;-72
2022/12/04 06:22:09;;;;;;;;;;;;;;;1.89;100.00;101159.37;5576356;31;34493;-71
2022/12/04 06:25:15;;;;;;;;;;;;;;;1.84;100.00;101171.88;5590800;31;34282;-71
2022/12/04 06:28:23;;;;;;;;;;;;;;;1.98;100.00;101164.06;5590798;31;34306;-72
2022/12/04 06:31:32;;;;;;;;;;;;;;;2.06;100.00;101174.91;5577687;31;34843;-72
2022/12/04 06:34:43;;;;;;;;;;;;;;;2.00;100.00;101169.19;5590570;31;34863;-71
2022/12/04 06:37:50;;;;;;;;;;;;;;;1.95;100.00;101160.78;5576416;31;34466;-71
2022/12/04 06:40:58;;;;;;;;;;;;;;;1.89;100.00;101167.22;5590424;31;34219;-71
2022/12/04 06:44:06;;;;;;;;;;;;;;;1.90;100.00;101173.28;5590544;31;34991;-72
2022/12/04 06:47:14;;;;;;;;;;;;;;;1.91;100.00;101169.75;5590473;31;34267;-71
2022/12/04 06:50:21;;;;;;;;;;;;;;;1.97;100.00;101169.37;5590405;31;34348;-71
2022/12/04 06:53:29;;;;;;;;;;;;;;;2.01;100.00;101170.88;5590360;31;34160;-70
2022/12/04 06:56:35;;;;;;;;;;;;;;;2.02;100.00;101164.72;5576717;31;33075;-71
2022/12/04 06:59:41;;;;;;;;;;;;;;;2.03;100.00;101166.41;5577198;31;34710;-71
2022/12/04 07:02:49;;;;;;;;;;;;;;;2.04;100.00;101158.44;5590296;31;34736;-71
2022/12/04 07:05:56;;;;;;;;;;;;;;;2.03;100.00;101169.03;5590163;31;34901;-71
2022/12/04 07:09:07;;;;;;;;;;;;;;;2.05;100.00;101164.50;5588493;31;34506;-71
2022/12/04 07:12:15;;;;;;;;;;;;;;;2.02;100.00;101162.09;5576364;31;35158;-71
2022/12/04 07:15:21;;;;;;;;;;;;;;;2.00;100.00;101170.03;5590274;31;34633;-71
2022/12/04 07:18:30;;;;;;;;;;;;;;;2.03;100.00;101174.25;5590326;31;34800;-71
2022/12/04 07:21:35;;;;;;;;;;;;;;;2.04;100.00;101165.44;5590187;31;34210;-71
2022/12/04 07:24:43;;;;;;;;;;;;;;;2.08;100.00;101178.25;5576778;31;34182;-71
2022/12/04 07:27:48;;;;;;;;;;;;;;;2.14;100.00;101180.50;5590064;31;34337;-72
2022/12/04 07:30:57;;;;;;;;;;;;;;;2.25;100.00;101177.22;5589972;31;34852;-72
2022/12/04 07:34:04;;;;;;;;;;;;;;;2.21;100.00;101172.28;5590405;31;34333;-72
2022/12/04 07:37:15;;;;;;;;;;;;;;;2.25;100.00;101179.00;5590104;31;34784;-71
2022/12/04 07:40:22;;;;;;;;;;;;;;;2.32;100.00;101172.44;5589863;31;35021;-72
2022/12/04 07:43:28;;;;;;;;;;;;;;;2.36;100.00;101171.31;5590143;31;34677;-71
2022/12/04 07:46:35;;;;;;;;;;;;;;;2.41;100.00;101170.09;5589932;31;34308;-71
2022/12/04 07:49:40;;;;;;;;;;;;;;;2.51;100.00;101165.97;5589709;31;34635;-72
2022/12/04 07:52:47;;;;;;;;;;;;;;;2.52;100.00;101167.62;5576285;31;34293;-71
2022/12/04 07:55:55;;;;;;;;;;;;;;;2.61;100.00;101179.31;5589614;31;34234;-71
2022/12/04 07:59:05;;;;;;;;;;;;;;;2.69;100.00;101177.03;5589602;31;34320;-71
2022/12/04 08:02:15;;;;;;;;;;;;;;;2.84;100.00;101168.19;5576763;31;34283;-72
2022/12/04 08:05:22;;;;;;;;;;;;;;;2.79;100.00;101172.91;5589876;31;34534;-71
2022/12/04 08:08:29;;;;;;;;;;;;;;;2.77;100.00;101168.66;5575487;31;33596;-71
2022/12/04 08:11:36;;;;;;;;;;;;;;;2.87;100.00;101168.00;5589966;31;34812;-71
2022/12/04 08:14:45;;;;;;;;;;;;;;;2.88;100.00;101166.22;5576010;31;33436;-71
2022/12/04 08:17:50;;;;;;;;;;;;;;;2.99;100.00;101164.59;5589631;31;34332;-71
2022/12/04 08:21:03;;;;;;;;;;;;;;;2.95;100.00;101180.59;5589634;31;34302;-71
2022/12/04 08:24:09;;;;;;;;;;;;;;;3.05;100.00;101181.66;5576039;31;34225;-72
2022/12/04 08:27:16;;;;;;;;;;;;;;;3.12;100.00;101175.09;5575483;31;34228;-72
2022/12/04 08:30:23;;;;;;;;;;;;;;;3.23;100.00;101162.13;5589350;31;34932;-72
2022/12/04 08:33:28;;;;;;;;;;;;;;;3.44;100.00;101151.97;5589459;31;34816;-71
2022/12/04 08:36:34;;;;;;;;;;;;;;;3.67;100.00;101155.66;5562810;31;35168;-73
2022/12/04 08:39:40;;;;;;;;;;;;;;;3.70;100.00;101169.41;5575777;31;34214;-71
2022/12/04 08:42:49;;;;;;;;;;;;;;;4.04;100.00;101164.47;5588902;31;34515;-71
2022/12/04 08:45:55;;;;;;;;;;;;;;;4.17;100.00;101168.75;5575850;31;35106;-73
2022/12/04 08:49:05;;;;;;;;;;;;;;;4.25;100.00;101162.97;5588821;31;34204;-72
2022/12/04 08:52:12;;;;;;;;;;;;;;;4.51;100.00;101159.31;5574323;31;34805;-72
2022/12/04 08:55:20;;;;;;;;;;;;;;;4.53;100.00;101161.84;5562723;31;33398;-72
2022/12/04 08:58:27;;;;;;;;;;;;;;;4.63;100.00;101168.13;5574594;31;33280;-72
2022/12/04 09:01:34;;;;;;;;;;;;;;;4.88;100.00;101169.81;5588916;31;34912;-72
2022/12/04 09:04:43;;;;;;;;;;;;;;;4.78;100.00;101177.53;5575706;31;34315;-72
2022/12/04 09:07:50;;;;;;;;;;;;;;;4.50;100.00;101176.06;5588427;31;34276;-72
2022/12/04 09:11:01;;;;;;;;;;;;;;;4.49;100.00;101176.16;5588671;31;34714;-71
2022/12/04 09:14:09;;;;;;;;;;;;;;;4.74;100.00;101171.63;5588608;31;35025;-71
2022/12/04 09:17:15;;;;;;;;;;;;;;;4.90;100.00;101163.47;5588479;31;34562;-71
2022/12/04 09:20:25;;;;;;;;;;;;;;;4.70;100.00;101161.44;5574123;31;35059;-72
2022/12/04 09:23:32;;;;;;;;;;;;;;;4.96;100.00;101163.03;5588420;31;34894;-72
2022/12/04 09:26:39;;;;;;;;;;;;;;;5.20;100.00;101155.94;5574217;31;33460;-74
2022/12/04 09:29:47;;;;;;;;;;;;;;;5.27;100.00;101164.22;5574495;31;34269;-72
2022/12/04 09:32:55;;;;;;;;;;;;;;;5.30;100.00;101157.88;5590196;31;34294;-72
2022/12/04 09:36:02;;;;;;;;;;;;;;;5.25;100.00;101151.19;5577777;31;34688;-72
2022/12/04 09:39:09;;;;;;;;;;;;;;;5.07;100.00;101149.09;5590927;31;34742;-72
2022/12/04 09:42:19;;;;;;;;;;;;;;;5.21;100.00;101147.12;5576919;31;34671;-72
2022/12/04 09:45:26;;;;;;;;;;;;;;;5.14;100.00;101143.25;5590757;31;35081;-72
2022/12/04 09:48:33;;;;;;;;;;;;;;;5.13;100.00;101135.50;5590778;31;34257;-71
2022/12/04 09:51:41;;;;;;;;;;;;;;;5.39;100.00;101131.72;5563962;31;34505;-72
2022/12/04 09:54:50;;;;;;;;;;;;;;;5.50;100.00;101125.66;5590807;31;34721;-73
2022/12/04 09:57:58;;;;;;;;;;;;;;;5.78;100.00;101125.19;5590746;31;34775;-72
2022/12/04 10:01:05;;;;;;;;;;;;;;;5.64;100.00;101118.37;5590511;31;34721;-72
2022/12/04 10:04:14;;;;;;;;;;;;;;;5.66;100.00;101124.34;5590600;31;34332;-69
2022/12/04 10:07:25;;;;;;;;;;;;;;;5.66;100.00;101120.91;5590424;31;34279;-71
2022/12/04 10:10:42;;;;;;;;;;;;;;;5.60;100.00;101108.19;5575961;31;35150;-71
2022/12/04 10:13:49;;;;;;;;;;;;;;;6.15;100.00;101101.28;5577108;31;34261;-71
2022/12/04 10:17:02;;;;;;;;;;;;;;;5.99;100.00;101091.13;5590463;31;34497;-71
2022/12/04 10:20:26;;;;;;;;;;;;;;;6.51;100.00;101098.34;5576545;31;33827;-71
2022/12/04 10:23:34;;;;;;;;;;;;;;;6.51;100.00;101088.63;5590235;31;34331;-72
2022/12/04 10:26:44;;;;;;;;;;;;;;;6.72;100.00;101087.84;5576697;31;35025;-71
2022/12/04 10:29:54;;;;;;;;;;;;;;;6.98;100.00;101082.06;5577105;31;34137;-71
2022/12/04 10:33:08;;;;;;;;;;;;;;;6.94;100.00;101077.19;5576556;31;34464;-72
2022/12/04 10:36:17;;;;;;;;;;;;;;;7.14;100.00;101078.16;5576302;31;35271;-70
2022/12/04 10:39:33;;;;;;;;;;;;;;;7.06;100.00;101077.97;5576463;31;34480;-72
2022/12/04 10:42:42;;;;;;;;;;;;;;;6.88;100.00;101067.13;5576204;31;34287;-73
2022/12/04 10:45:47;;;;;;;;;;;;;;;7.24;100.00;101057.97;5576286;31;34633;-71
2022/12/04 10:49:00;;;;;;;;;;;;;;;7.17;100.00;101059.44;5590111;31;34396;-72
2022/12/04 10:52:10;;;;;;;;;;;;;;;6.88;100.00;101054.78;5576939;31;34971;-72
2022/12/04 10:55:27;;;;;;;;;;;;;;;6.88;100.00;101046.87;5576194;31;34248;-71
2022/12/04 10:58:34;;;;;;;;;;;;;;;6.88;100.00;101040.75;5590208;31;34268;-71
2022/12/04 11:01:41;;;;;;;;;;;;;;;6.88;100.00;101043.41;5590089;31;34916;-71
2022/12/04 11:04:56;;;;;;;;;;;;;;;6.89;100.00;101035.38;5589803;31;34579;-72
2022/12/04 11:08:04;;;;;;;;;;;;;;;7.31;100.00;101030.91;5590208;31;34218;-71
2022/12/04 11:11:15;;;;;;;;;;;;;;;7.16;100.00;101019.03;5590040;31;33778;-72
2022/12/04 11:14:22;;;;;;;;;;;;;;;7.30;100.00;101029.25;5590133;31;34958;-70
2022/12/04 11:17:31;;;;;;;;;;;;;;;7.22;100.00;101022.94;5590044;31;34459;-71
2022/12/04 11:20:38;;;;;;;;;;;;;;;7.60;100.00;101011.75;5589841;31;35019;-71
2022/12/04 11:23:51;;;;;;;;;;;;;;;7.86;100.00;101011.13;5589928;31;34548;-70
2022/12/04 11:26:58;;;;;;;;;;;;;;;7.61;100.00;101001.03;5590180;31;34824;-71
2022/12/04 11:30:15;;;;;;;;;;;;;;;7.72;100.00;100990.38;5590126;31;34256;-72
2022/12/04 11:33:25;;;;;;;;;;;;;;;7.84;100.00;100993.75;5576875;31;34345;-72
2022/12/04 11:36:34;;;;;;;;;;;;;;;7.83;100.00;101003.47;5589959;31;34222;-71
2022/12/04 11:39:40;;;;;;;;;;;;;;;8.07;100.00;101000.47;5589904;31;34260;-71
2022/12/04 11:42:57;;;;;;;;;;;;;;;8.29;100.00;100994.94;5590016;31;34240;-71
2022/12/04 11:46:05;;;;;;;;;;;;;;;7.80;100.00;100992.31;5589927;31;34414;-71
2022/12/04 11:49:19;;;;;;;;;;;;;;;7.88;100.00;100976.66;5575888;31;34593;-71
2022/12/04 11:52:51;;;;;;;;;;;;;;;7.80;100.00;100979.97;5589836;31;35092;-71
2022/12/04 11:56:06;;;;;;;;;;;;;;;8.03;100.00;100967.38;5575266;31;32829;-71
2022/12/04 11:59:13;;;;;;;;;;;;;;;8.36;100.00;100963.53;5589759;31;34278;-72
2022/12/04 12:02:26;;;;;;;;;;;;;;;7.94;100.00;100960.25;5589952;31;34202;-71
2022/12/04 12:05:39;;;;;;;;;;;;;;;8.06;100.00;100961.81;5589784;31;34873;-72
2022/12/04 12:08:49;;;;;;;;;;;;;;;8.24;100.00;100949.56;5589643;31;34232;-71
2022/12/04 12:11:53;;;;;;;;;;;;;;;8.58;100.00;100952.66;5576318;31;34717;-70
2022/12/04 12:15:04;;;;;;;;;;;;;;;8.17;100.00;100951.13;5589897;31;34964;-70
2022/12/04 12:18:12;;;;;;;;;;;;;;;8.24;100.00;100952.22;5589327;31;34437;-71
2022/12/04 12:21:26;;;;;;;;;;;;;;;8.23;100.00;100958.47;5589629;31;34335;-72
2022/12/04 12:24:35;;;;;;;;;;;;;;;7.96;100.00;100966.22;5589568;31;35097;-72
2022/12/04 12:27:41;;;;;;;;;;;;;;;8.05;100.00;100964.56;5589520;31;34134;-70
2022/12/04 12:31:13;;;;;;;;;;;;;;;8.31;100.00;100963.09;5575215;31;35665;-71
2022/12/04 12:34:33;;;;;;;;;;;;;;;8.57;100.00;100961.53;5566471;31;34152;-71
2022/12/04 12:37:44;;;;;;;;;;;;;;;8.33;100.00;100957.69;5588798;31;34916;-71
2022/12/04 12:40:52;;;;;;;;;;;;;;;8.62;100.00;100969.06;5589299;31;34428;-71
2022/12/04 12:44:09;;;;;;;;;;;;;;;8.88;100.00;100962.22;5589299;31;34582;-71
2022/12/04 12:47:18;;;;;;;;;;;;;;;8.90;99.09;100968.22;5589271;31;34181;-71
2022/12/04 12:50:43;;;;;;;;;;;;;;;8.84;98.65;100960.00;5575556;31;34145;-71
2022/12/04 12:53:53;;;;;;;;;;;;;;;8.91;98.97;100950.50;5589180;31;34189;-70
2022/12/04 12:57:16;;;;;;;;;;;;;;;8.76;98.39;100960.72;5575268;31;34524;-71
2022/12/04 13:00:21;;;;;;;;;;;;;;;8.79;98.14;100956.94;5575237;31;34273;-72
2022/12/04 13:03:39;;;;;;;;;;;;;;;8.60;98.96;100947.22;5562482;31;35286;-71
2022/12/04 13:06:47;;;;;;;;;;;;;;;8.61;99.34;100940.97;5575904;31;35091;-72
2022/12/04 13:09:56;;;;;;;;;;;;;;;8.60;100.00;100939.28;5570666;32;35748;-70
2022/12/04 13:13:13;;;;;;;;;;;;;;;8.92;98.23;100950.34;5571568;32;34845;-71
2022/12/04 13:16:21;;;;;;;;;;;;;;;8.85;98.38;100943.97;5571495;32;34143;-70
2022/12/04 13:19:33;;;;;;;;;;;;;;;8.88;98.14;100948.13;5570667;32;34521;-70
2022/12/04 13:22:49;;;;;;;;;;;;;;;8.95;98.29;100943.97;5570563;32;33004;-70
2022/12/04 13:26:02;;;;;;;;;;;;;;;8.79;98.06;100935.78;5571364;32;34426;-71
2022/12/04 13:29:16;;;;;;;;;;;;;;;8.60;99.10;100945.41;5571306;32;34448;-71
2022/12/04 13:32:39;;;;;;;;;;;;;;;8.64;100.00;100949.44;5570780;32;34775;-70
2022/12/04 13:35:46;;;;;;;;;;;;;;;8.52;100.00;100955.03;5571476;32;34233;-71
2022/12/04 13:38:55;;;;;;;;;;;;;;;8.17;100.00;100964.31;5571247;32;34368;-70
2022/12/04 13:42:05;;;;;;;;;;;;;;;8.11;100.00;100971.97;5570602;32;33702;-70
2022/12/04 13:45:23;;;;;;;;;;;;;;;8.04;100.00;100963.72;5571450;32;34564;-71
2022/12/04 13:48:31;;;;;;;;;;;;;;;8.00;100.00;100962.34;5570345;32;34840;-70
2022/12/04 13:51:39;;;;;;;;;;;;;;;8.08;100.00;100961.69;5571198;32;34405;-70
2022/12/04 13:54:57;;;;;;;;;;;;;;;8.07;100.00;100955.56;5571376;32;34412;-70
2022/12/04 13:58:03;;;;;;;;;;;;;;;7.82;100.00;100958.69;5571264;32;34320;-70
2022/12/04 14:01:29;;;;;;;;;;;;;;;7.75;100.00;100952.28;5557793;32;35408;-71
2022/12/04 14:04:42;;;;;;;;;;;;;;;7.72;100.00;100955.19;5561742;32;34889;-70
2022/12/04 14:08:00;;;;;;;;;;;;;;;7.56;100.00;100966.25;5571060;32;34232;-71
2022/12/04 14:11:18;;;;;;;;;;;;;;;7.55;100.00;100976.97;5576427;31;35060;-71
2022/12/04 14:14:27;;;;;;;;;;;;;;;7.48;100.00;100978.47;5590675;31;34615;-71
2022/12/04 14:17:38;;;;;;;;;;;;;;;7.39;100.00;100975.66;5590361;31;34284;-71
2022/12/04 14:20:57;;;;;;;;;;;;;;;7.46;100.00;100978.59;5576922;31;34900;-70
2022/12/04 14:24:15;;;;;;;;;;;;;;;7.38;100.00;100974.00;5590619;31;34789;-70
2022/12/04 14:27:50;;;;;;;;;;;;;;;7.33;100.00;100984.09;5590345;31;34479;-72
2022/12/04 14:31:04;;;;;;;;;;;;;;;7.31;100.00;100983.41;5590054;31;33957;-71
2022/12/04 14:34:20;;;;;;;;;;;;;;;7.38;100.00;100975.78;5576466;31;32818;-71
2022/12/04 14:37:29;;;;;;;;;;;;;;;7.28;100.00;100978.41;5590465;31;34958;-71
2022/12/04 14:40:38;;;;;;;;;;;;;;;7.20;100.00;100980.88;5576611;31;34174;-70
2022/12/04 14:43:50;;;;;;;;;;;;;;;7.20;100.00;100977.38;5576202;31;32903;-71
2022/12/04 14:46:58;;;;;;;;;;;;;;;7.19;100.00;100973.06;5576555;31;35574;-70
2022/12/04 14:50:27;;;;;;;;;;;;;;;7.16;100.00;100975.97;5590233;31;34807;-70
2022/12/04 14:53:35;;;;;;;;;;;;;;;7.09;100.00;100975.66;5590507;31;34861;-71
2022/12/04 14:56:58;;;;;;;;;;;;;;;7.09;100.00;100975.66;5590374;31;34796;-69
2022/12/04 15:00:04;;;;;;;;;;;;;;;7.02;100.00;100974.50;5576120;31;34603;-69
2022/12/04 15:03:12;;;;;;;;;;;;;;;7.03;100.00;100981.44;5576816;31;34181;-71
2022/12/04 15:06:24;;;;;;;;;;;;;;;7.04;100.00;100987.56;5590534;31;34540;-71
2022/12/04 15:12:56;;;;;;;;;;;;;;;6.97;100.00;100989.91;5590248;31;34198;-71
2022/12/04 15:16:07;;;;;;;;;;;;;;;6.95;100.00;100984.75;5576438;31;34721;-71
2022/12/04 15:19:16;;;;;;;;;;;;;;;6.90;100.00;100986.94;5576875;31;34752;-71
2022/12/04 15:22:27;;;;;;;;;;;;;;;6.92;100.00;100986.81;5590218;31;34648;-71
2022/12/04 15:25:39;;;;;;;;;;;;;;;6.91;100.00;100990.41;5590111;31;34888;-71
2022/12/04 15:28:57;;;;;;;;;;;;;;;6.90;100.00;100984.31;5589396;31;34282;-70
2022/12/04 15:32:10;;;;;;;;;;;;;;;6.91;100.00;100979.87;5575808;31;35059;-70
2022/12/04 15:35:19;;;;;;;;;;;;;;;6.76;100.00;100991.69;5563365;31;33349;-70
2022/12/04 15:38:27;;;;;;;;;;;;;;;6.79;100.00;100989.63;5575838;31;34548;-70
2022/12/04 15:41:36;;;;;;;;;;;;;;;6.73;100.00;100984.88;5589783;31;34321;-70
2022/12/04 15:44:53;;;;;;;;;;;;;;;6.77;100.00;100991.59;5589858;31;34249;-70
2022/12/04 15:48:00;;;;;;;;;;;;;;;6.81;100.00;100989.50;5590023;31;34176;-70
2022/12/04 15:51:07;;;;;;;;;;;;;;;6.73;100.00;100992.78;5589942;31;34122;-70
2022/12/04 15:54:25;;;;;;;;;;;;;;;6.74;100.00;100988.34;5576416;31;34221;-70
2022/12/04 15:57:36;;;;;;;;;;;;;;;6.69;100.00;100995.78;5575994;31;34934;-71
2022/12/04 16:00:44;;;;;;;;;;;;;;;6.73;100.00;100991.97;5575800;31;35665;-71
2022/12/04 16:03:53;;;;;;;;;;;;;;;6.75;100.00;100992.66;5575406;31;35365;-71
2022/12/04 16:06:58;;;;;;;;;;;;;;;6.70;100.00;100989.56;5589260;31;34765;-71
2022/12/04 16:10:19;;;;;;;;;;;;;;;6.74;100.00;100990.97;5589352;31;34524;-71
2022/12/04 16:13:26;;;;;;;;;;;;;;;6.76;100.00;101002.25;5589251;31;34296;-70
2022/12/04 16:16:40;;;;;;;;;;;;;;;6.68;100.00;100997.59;5575194;31;35764;-72
2022/12/04 16:19:46;;;;;;;;;;;;;;;6.72;100.00;100991.12;5589397;31;35003;-71
2022/12/04 16:22:53;;;;;;;;;;;;;;;6.64;100.00;100993.53;5589296;31;34623;-71
2022/12/04 16:25:59;;;;;;;;;;;;;;;6.65;100.00;100995.22;5588847;31;34230;-70
2022/12/04 16:29:04;;;;;;;;;;;;;;;6.62;100.00;100999.94;5589253;31;34365;-70
2022/12/04 16:32:13;;;;;;;;;;;;;;;6.52;100.00;100987.50;5589413;31;34918;-70
2022/12/04 16:35:20;;;;;;;;;;;;;;;6.48;100.00;100996.63;5575372;31;32663;-71